createdAt,value
2019-06-26T16:13:52.911Z,24.70
2019-06-26T16:14:53.071Z,24.68
2019-06-26T16:15:52.983Z,24.70
2019-06-26T16:16:52.906Z,24.70
2019-06-26T16:17:52.849Z,24.70
2019-06-26T16:18:52.934Z,24.70
2019-06-26T16:19:52.853Z,24.70
2019-06-26T16:20:52.801Z,24.70
2019-06-26T16:21:52.804Z,24.71
2019-06-26T16:22:52.783Z,24.71
2019-06-26T16:23:52.778Z,24.71
2019-06-26T16:24:52.793Z,24.71
2019-06-26T16:25:52.749Z,24.74
2019-06-26T16:26:52.775Z,24.74
2019-06-26T16:28:04.631Z,24.74
2019-06-26T16:28:53.726Z,24.77
2019-06-26T16:29:52.748Z,24.79
2019-06-26T16:30:52.706Z,24.77
2019-06-26T16:31:52.844Z,24.80
2019-06-26T16:32:52.680Z,24.79
2019-06-26T16:33:52.662Z,24.79
2019-06-26T16:34:52.696Z,24.82
2019-06-26T16:35:52.654Z,24.82
2019-06-26T16:36:52.646Z,24.83
2019-06-26T16:37:52.621Z,24.83
2019-06-26T16:38:52.613Z,24.84
2019-06-26T16:39:52.605Z,24.86
2019-06-26T16:40:52.626Z,24.86
2019-06-26T16:41:52.586Z,24.87
2019-06-26T16:42:52.574Z,24.89
2019-06-26T16:43:52.561Z,24.89
2019-06-26T16:44:52.575Z,24.89
2019-06-26T16:45:52.534Z,24.92
2019-06-26T16:46:52.527Z,24.92
2019-06-26T16:47:52.517Z,24.92
2019-06-26T16:48:52.515Z,24.93
2019-06-26T16:49:52.509Z,24.94
2019-06-26T16:50:52.550Z,24.94
2019-06-26T16:51:52.477Z,24.94
2019-06-26T16:52:52.456Z,24.98
2019-06-26T16:53:52.458Z,24.98
2019-06-26T16:54:52.444Z,24.98
2019-06-26T16:55:52.437Z,24.98
2019-06-26T16:56:52.448Z,24.99
2019-06-26T16:57:52.405Z,24.99
2019-06-26T16:58:52.402Z,24.99
2019-06-26T17:00:05.010Z,25.02
2019-06-26T17:00:53.388Z,25.01
2019-06-26T17:01:52.397Z,25.02
2019-06-26T17:02:52.365Z,25.04
2019-06-26T17:03:52.348Z,25.04
2019-06-26T17:04:52.364Z,25.05
2019-06-26T17:05:52.330Z,25.05
2019-06-26T17:06:52.310Z,25.04
2019-06-26T17:07:52.336Z,25.07
2019-06-26T17:08:52.287Z,25.07
2019-06-26T17:09:52.289Z,25.07
2019-06-26T17:10:52.270Z,25.07
2019-06-26T17:11:52.264Z,25.07
2019-06-26T17:12:52.243Z,25.07
2019-06-26T17:13:52.268Z,25.09
2019-06-26T17:14:52.227Z,25.09
2019-06-26T17:15:52.294Z,25.11
2019-06-26T17:16:52.229Z,25.11
2019-06-26T17:17:52.206Z,25.11
2019-06-26T17:18:52.192Z,25.09
2019-06-26T17:19:52.209Z,25.12
2019-06-26T17:20:52.158Z,25.14
2019-06-26T17:21:52.147Z,25.14
2019-06-26T17:23:05.319Z,25.14
2019-06-26T17:23:53.142Z,25.12
2019-06-26T17:24:52.162Z,25.16
2019-06-26T17:25:52.105Z,25.16
2019-06-26T17:26:52.100Z,25.16
2019-06-26T17:27:52.090Z,25.16
2019-06-26T17:28:52.082Z,25.16
2019-06-26T17:29:52.072Z,25.19
2019-06-26T17:30:53.060Z,25.19
2019-06-26T17:31:52.055Z,25.19
2019-06-26T17:32:52.030Z,25.17
2019-06-26T17:33:52.023Z,25.20
2019-06-26T17:34:52.010Z,25.20
2019-06-26T17:35:52.035Z,25.20
2019-06-26T17:36:51.994Z,25.22
2019-06-26T17:37:51.983Z,25.23
2019-06-26T17:38:51.973Z,25.23
2019-06-26T17:39:51.963Z,25.23
2019-06-26T17:40:51.942Z,25.24
2019-06-26T17:41:51.981Z,25.24
2019-06-26T17:42:51.924Z,25.26
2019-06-26T17:43:51.914Z,25.24
2019-06-26T17:44:51.902Z,25.27
2019-06-26T17:45:51.883Z,25.27
2019-06-26T17:46:51.931Z,25.27
2019-06-26T17:47:51.878Z,25.29
2019-06-26T17:48:51.965Z,25.27
2019-06-26T17:49:51.889Z,25.30
2019-06-26T17:50:51.836Z,25.31
2019-06-26T17:51:51.854Z,25.30
2019-06-26T17:52:51.823Z,25.31
2019-06-26T17:53:51.803Z,25.31
2019-06-26T17:54:51.796Z,25.31
2019-06-26T17:55:51.785Z,25.31
2019-06-26T17:56:51.815Z,25.34
2019-06-26T17:57:51.765Z,25.34
2019-06-26T17:58:51.755Z,25.34
2019-06-26T17:59:51.746Z,25.35
2019-06-26T18:00:51.737Z,25.35
2019-06-26T18:01:51.728Z,25.36
2019-06-26T18:02:51.753Z,25.36
2019-06-26T18:03:51.697Z,25.36
2019-06-26T18:04:51.693Z,25.36
2019-06-26T18:05:51.673Z,25.38
2019-06-26T18:06:51.668Z,25.38
2019-06-26T18:07:51.658Z,25.38
2019-06-26T18:08:51.678Z,25.39
2019-06-26T18:09:51.638Z,25.38
2019-06-26T18:10:51.642Z,25.39
2019-06-26T18:11:51.617Z,25.39
2019-06-26T18:12:51.596Z,25.41
2019-06-26T18:13:51.631Z,25.42
2019-06-26T18:14:51.587Z,25.39
2019-06-26T18:15:51.568Z,25.42
2019-06-26T18:16:51.556Z,25.42
2019-06-26T18:17:51.562Z,25.42
2019-06-26T18:18:51.538Z,25.42
2019-06-26T18:19:53.812Z,25.42
2019-06-26T18:20:51.527Z,25.44
2019-06-26T18:21:51.511Z,25.44
2019-06-26T18:23:05.832Z,25.45
2019-06-26T18:23:52.488Z,25.45
2019-06-26T18:24:51.498Z,25.46
2019-06-26T18:25:54.075Z,25.46
2019-06-26T18:26:51.449Z,25.46
2019-06-26T18:27:51.461Z,25.46
2019-06-26T18:28:51.470Z,25.48
2019-06-26T18:29:51.417Z,25.48
2019-06-26T18:30:51.409Z,25.48
2019-06-26T18:31:51.401Z,25.48
2019-06-26T18:32:51.392Z,25.49
2019-06-26T18:33:51.381Z,25.48
2019-06-26T18:34:51.401Z,25.51
2019-06-26T18:35:51.359Z,25.49
2019-06-26T18:36:51.340Z,25.49
2019-06-26T18:37:51.331Z,25.49
2019-06-26T18:38:51.333Z,25.51
2019-06-26T18:39:51.342Z,25.49
2019-06-26T18:40:51.311Z,25.51
2019-06-26T18:41:51.303Z,25.51
2019-06-26T18:42:51.281Z,25.51
2019-06-26T18:43:51.271Z,25.51
2019-06-26T18:44:51.262Z,25.53
2019-06-26T18:45:51.283Z,25.51
2019-06-26T18:46:51.242Z,25.53
2019-06-26T18:47:51.234Z,25.53
2019-06-26T18:48:51.211Z,25.53
2019-06-26T18:49:51.231Z,25.53
2019-06-26T18:50:51.191Z,25.53
2019-06-26T18:51:51.184Z,25.54
2019-06-26T18:52:51.175Z,25.53
2019-06-26T18:53:53.893Z,25.54
2019-06-26T18:54:51.156Z,25.53
2019-06-26T18:55:51.172Z,25.54
2019-06-26T18:56:51.127Z,25.54
2019-06-26T18:57:51.141Z,25.53
2019-06-26T18:58:51.111Z,25.53
2019-06-26T18:59:51.096Z,25.54
2019-06-26T19:00:51.094Z,25.54
2019-06-26T19:01:51.104Z,25.54
2019-06-26T19:02:51.064Z,25.56
2019-06-26T19:03:51.056Z,25.57
2019-06-26T19:04:54.011Z,25.56
2019-06-26T19:05:51.045Z,25.56
2019-06-26T19:06:51.028Z,25.57
2019-06-26T19:07:51.044Z,25.57
2019-06-26T19:08:50.996Z,25.56
2019-06-26T19:09:50.984Z,25.57
2019-06-26T19:10:50.983Z,25.57
2019-06-26T19:11:50.976Z,25.57
2019-06-26T19:12:50.968Z,25.59
2019-06-26T19:13:50.987Z,25.59
2019-06-26T19:14:50.937Z,25.59
2019-06-26T19:15:50.925Z,25.59
2019-06-26T19:16:50.914Z,25.59
2019-06-26T19:17:50.916Z,25.59
2019-06-26T19:18:50.929Z,25.59
2019-06-26T19:19:50.886Z,25.57
2019-06-26T19:20:50.865Z,25.60
2019-06-26T19:21:50.867Z,25.60
2019-06-26T19:22:50.856Z,25.59
2019-06-26T19:23:50.858Z,25.59
2019-06-26T19:24:51.049Z,25.59
2019-06-26T19:25:50.855Z,25.59
2019-06-26T19:26:50.820Z,25.59
2019-06-26T19:27:50.800Z,25.61
2019-06-26T19:28:50.827Z,25.60
2019-06-26T19:29:50.768Z,25.60
2019-06-26T19:30:50.826Z,25.61
2019-06-26T19:31:50.772Z,25.60
2019-06-26T19:32:50.759Z,25.60
2019-06-26T19:33:50.737Z,25.60
2019-06-26T19:34:50.783Z,25.60
2019-06-26T19:35:50.712Z,25.61
2019-06-26T19:36:50.883Z,25.61
2019-06-26T19:37:50.699Z,25.61
2019-06-26T19:38:50.685Z,25.61
2019-06-26T19:39:50.698Z,25.61
2019-06-26T19:40:50.649Z,25.61
2019-06-26T19:41:50.641Z,25.60
2019-06-26T19:42:50.642Z,25.61
2019-06-26T19:43:50.629Z,25.60
2019-06-26T19:44:50.659Z,25.61
2019-06-26T19:45:50.637Z,25.61
2019-06-26T19:46:50.593Z,25.61
2019-06-26T19:47:50.583Z,25.61
2019-06-26T19:48:50.567Z,25.61
2019-06-26T19:49:50.572Z,25.60
2019-06-26T19:50:50.585Z,25.61
2019-06-26T19:51:50.559Z,25.61
2019-06-26T19:52:50.520Z,25.63
2019-06-26T19:53:50.510Z,25.61
2019-06-26T19:54:50.512Z,25.61
2019-06-26T19:55:50.533Z,25.63
2019-06-26T19:56:50.493Z,25.63
2019-06-26T19:57:50.481Z,25.61
2019-06-26T19:58:50.463Z,25.63
2019-06-26T19:59:50.453Z,25.63
2019-06-26T20:00:50.473Z,25.64
2019-06-26T20:01:51.466Z,25.64
2019-06-26T20:02:50.420Z,25.64
2019-06-26T20:03:50.440Z,25.64
2019-06-26T20:04:50.405Z,25.66
2019-06-26T20:05:50.390Z,25.66
2019-06-26T20:06:50.443Z,25.67
2019-06-26T20:07:50.375Z,25.67
2019-06-26T20:08:56.125Z,25.67
2019-06-26T20:09:51.346Z,25.69
2019-06-26T20:10:50.336Z,25.71
2019-06-26T20:11:50.324Z,25.71
2019-06-26T20:12:50.355Z,25.71
2019-06-26T20:13:50.345Z,25.71
2019-06-26T20:14:50.294Z,25.72
2019-06-26T20:15:50.354Z,25.74
2019-06-26T20:16:50.276Z,25.74
2019-06-26T20:17:50.315Z,25.74
2019-06-26T20:18:50.245Z,25.74
2019-06-26T20:19:50.240Z,25.75
2019-06-26T20:20:50.216Z,25.75
2019-06-26T20:21:50.249Z,25.74
2019-06-26T20:22:50.216Z,25.75
2019-06-26T20:23:50.222Z,25.75
2019-06-26T20:24:50.180Z,25.76
2019-06-26T20:25:50.164Z,25.75
2019-06-26T20:26:50.156Z,25.76
2019-06-26T20:27:56.610Z,25.78
2019-06-26T20:28:51.178Z,25.76
2019-06-26T20:29:50.131Z,25.76
2019-06-26T20:30:50.120Z,25.76
2019-06-26T20:31:50.106Z,25.78
2019-06-26T20:32:50.094Z,25.78
2019-06-26T20:33:50.076Z,25.78
2019-06-26T20:34:50.128Z,25.79
2019-06-26T20:35:50.059Z,25.79
2019-06-26T20:36:50.078Z,25.78
2019-06-26T20:37:50.028Z,25.78
2019-06-26T20:38:50.059Z,25.81
2019-06-26T20:39:50.053Z,25.79
2019-06-26T20:40:50.021Z,25.79
2019-06-26T20:41:50.022Z,25.79
2019-06-26T20:42:49.980Z,25.79
2019-06-26T20:43:49.969Z,25.79
2019-06-26T20:44:49.960Z,25.79
2019-06-26T20:45:49.979Z,25.79
2019-06-26T20:46:50.048Z,25.79
2019-06-26T20:47:49.930Z,25.79
2019-06-26T20:48:49.923Z,25.79
2019-06-26T20:49:53.532Z,25.79
2019-06-26T20:50:49.898Z,25.81
2019-06-26T20:51:49.918Z,25.79
2019-06-26T20:52:49.869Z,25.78
2019-06-26T20:53:49.871Z,25.76
2019-06-26T20:55:00.744Z,25.79
2019-06-26T20:55:50.840Z,25.76
2019-06-26T20:56:49.850Z,25.78
2019-06-26T20:57:49.811Z,25.78
2019-06-26T20:58:49.810Z,25.78
2019-06-26T20:59:49.804Z,25.76
2019-06-26T21:00:49.794Z,25.76
2019-06-26T21:01:49.813Z,25.76
2019-06-26T21:02:49.764Z,25.76
2019-06-26T21:03:49.752Z,25.75
2019-06-26T21:04:49.740Z,25.76
2019-06-26T21:05:49.723Z,25.76
2019-06-26T21:06:49.751Z,25.75
2019-06-26T21:07:49.713Z,25.75
2019-06-26T21:08:49.704Z,25.74
2019-06-26T21:09:49.681Z,25.74
